Time;durP1;ratioP1;P1;durP2;ratioP2;P2;SDS_P1;SDS_P2;PMS_P1;PMS_P2;Temp;Humidity;BMP_temperature;BMP_pressure;BME280_temperature;BME280_humidity;BME280_pressure;Samples;Min_cycle;Max_cycle;Signal;HPM_P1;HPM_P2
2021/09/25 00:00:08;;;;;;;12.80;7.60;;;12.90;84.60;;;;;;5112603;28;20215;-66
2021/09/25 00:02:41;;;;;;;12.23;5.65;;;12.90;84.20;;;;;;5111891;28;20212;-66
2021/09/25 00:05:08;;;;;;;14.50;8.15;;;12.80;83.70;;;;;;5112671;28;20275;-65
2021/09/25 00:07:38;;;;;;;13.63;6.30;;;12.80;83.30;;;;;;5112022;28;20271;-65
2021/09/25 00:10:05;;;;;;;10.68;6.40;;;12.80;83.70;;;;;;5112347;28;20222;-65
2021/09/25 00:12:32;;;;;;;8.07;5.70;;;12.80;84.20;;;;;;5111778;28;20712;-65
2021/09/25 00:15:01;;;;;;;9.32;5.35;;;12.70;84.50;;;;;;5112354;28;20632;-65
2021/09/25 00:17:28;;;;;;;6.43;5.05;;;12.70;85.00;;;;;;5112171;28;20203;-65
2021/09/25 00:19:55;;;;;;;6.03;5.40;;;12.60;85.20;;;;;;5112485;28;20228;-65
2021/09/25 00:22:23;;;;;;;8.95;4.30;;;12.70;85.20;;;;;;5112385;28;20239;-65
2021/09/25 00:24:50;;;;;;;7.20;5.53;;;12.70;84.30;;;;;;5112574;28;20201;-65
2021/09/25 00:27:25;;;;;;;7.50;4.97;;;12.60;84.00;;;;;;5112372;28;20235;-65
2021/09/25 00:29:52;;;;;;;6.25;4.78;;;12.60;84.30;;;;;;5091993;28;20223;-65
2021/09/25 00:32:20;;;;;;;6.78;5.35;;;12.70;84.10;;;;;;5092065;28;20246;-65
2021/09/25 00:34:49;;;;;;;5.28;3.92;;;12.70;83.30;;;;;;5111885;28;20188;-64
2021/09/25 00:37:16;;;;;;;4.68;3.35;;;12.70;82.30;;;;;;5112062;28;20336;-65
2021/09/25 00:39:43;;;;;;;5.55;3.88;;;12.60;82.00;;;;;;5112153;28;20199;-65
2021/09/25 00:42:16;;;;;;;7.47;4.35;;;12.60;81.20;;;;;;5112450;28;20188;-65
2021/09/25 00:44:44;;;;;;;7.30;4.20;;;12.50;79.20;;;;;;5114168;28;20191;-65
2021/09/25 00:47:14;;;;;;;4.63;4.13;;;12.50;80.30;;;;;;5116046;28;20278;-65
2021/09/25 00:49:42;;;;;;;5.00;4.22;;;12.50;81.60;;;;;;5115479;28;20279;-65
2021/09/25 00:52:09;;;;;;;6.00;4.40;;;12.40;81.80;;;;;;5115155;28;20283;-66
2021/09/25 00:54:37;;;;;;;6.53;4.82;;;12.40;82.80;;;;;;5115744;28;20550;-65
2021/09/25 00:57:05;;;;;;;6.05;4.32;;;12.40;83.70;;;;;;5115730;28;20226;-65
2021/09/25 00:59:33;;;;;;;4.97;3.50;;;12.40;83.80;;;;;;5115678;28;20275;-66
2021/09/25 01:02:00;;;;;;;4.50;3.47;;;12.40;82.30;;;;;;5115544;28;20524;-65
2021/09/25 01:04:28;;;;;;;4.70;3.35;;;12.40;81.00;;;;;;5115345;28;20271;-66
2021/09/25 01:06:56;;;;;;;5.00;3.90;;;12.40;81.10;;;;;;5115505;28;20188;-66
2021/09/25 01:09:23;;;;;;;5.15;4.47;;;12.30;81.20;;;;;;5115108;28;20195;-65
2021/09/25 01:11:51;;;;;;;4.72;3.63;;;12.30;81.60;;;;;;5115472;28;20275;-65
2021/09/25 01:14:22;;;;;;;4.32;3.92;;;12.30;80.90;;;;;;5115346;28;20280;-65
2021/09/25 01:16:49;;;;;;;4.30;3.50;;;12.30;80.30;;;;;;5115670;28;20279;-64
2021/09/25 01:19:17;;;;;;;5.25;3.35;;;12.20;79.70;;;;;;5114955;28;20185;-64
2021/09/25 01:21:45;;;;;;;5.40;4.22;;;12.20;79.80;;;;;;5115499;28;20314;-64
2021/09/25 01:24:12;;;;;;;4.78;2.97;;;12.20;80.00;;;;;;5114601;28;20271;-64
2021/09/25 01:26:41;;;;;;;4.55;3.70;;;12.20;81.30;;;;;;5115289;28;20188;-64
2021/09/25 01:29:13;;;;;;;5.22;3.70;;;12.10;82.00;;;;;;5115342;28;20275;-65
2021/09/25 01:31:40;;;;;;;4.50;3.35;;;12.20;82.20;;;;;;5115315;28;20607;-65
2021/09/25 01:34:07;;;;;;;4.82;3.55;;;12.10;81.40;;;;;;5114611;28;20614;-65
2021/09/25 01:36:36;;;;;;;4.32;3.80;;;12.10;80.80;;;;;;5114353;28;20307;-66
2021/09/25 01:39:05;;;;;;;7.72;4.82;;;12.00;80.30;;;;;;5115045;28;20279;-66
2021/09/25 01:41:32;;;;;;;5.13;4.60;;;12.00;80.30;;;;;;5114863;28;20303;-65
2021/09/25 01:44:04;;;;;;;8.15;5.35;;;11.90;80.40;;;;;;5114521;28;20188;-65
2021/09/25 01:46:34;;;;;;;4.30;3.75;;;11.90;80.20;;;;;;5114975;28;20283;-65
2021/09/25 01:49:04;;;;;;;6.00;4.50;;;11.90;80.60;;;;;;5113265;28;20267;-65
2021/09/25 01:51:31;;;;;;;5.15;3.80;;;11.80;80.40;;;;;;5114948;28;20268;-67
2021/09/25 01:54:00;;;;;;;5.40;3.97;;;11.80;80.50;;;;;;5114211;28;20194;-66
2021/09/25 01:56:28;;;;;;;5.47;4.63;;;11.80;81.40;;;;;;5114675;28;20188;-66
2021/09/25 01:58:55;;;;;;;4.68;3.97;;;11.80;82.70;;;;;;5114671;28;20185;-66
2021/09/25 02:01:22;;;;;;;4.65;3.95;;;11.80;82.70;;;;;;5114570;28;20303;-65
2021/09/25 02:03:49;;;;;;;5.65;3.97;;;11.80;82.30;;;;;;5114116;28;20271;-64
2021/09/25 02:06:18;;;;;;;4.70;3.70;;;11.80;83.70;;;;;;5114046;28;20702;-65
2021/09/25 02:08:45;;;;;;;4.97;3.63;;;11.80;84.30;;;;;;5114723;28;20231;-65
2021/09/25 02:11:17;;;;;;;4.57;3.55;;;11.80;85.20;;;;;;5114313;28;20195;-65
2021/09/25 02:13:47;;;;;;;5.70;3.72;;;11.80;85.80;;;;;;5114529;28;20230;-65
2021/09/25 02:16:17;;;;;;;4.60;3.75;;;11.80;85.80;;;;;;5114412;28;20275;-65
2021/09/25 02:18:45;;;;;;;3.90;3.30;;;11.90;85.40;;;;;;5114530;28;20242;-67
2021/09/25 02:21:13;;;;;;;4.22;3.38;;;11.90;85.00;;;;;;5113688;28;20597;-65
2021/09/25 02:23:40;;;;;;;4.68;3.03;;;11.90;84.50;;;;;;5113932;28;20188;-65
2021/09/25 02:26:11;;;;;;;6.97;3.67;;;11.90;84.30;;;;;;5114109;28;20211;-65
2021/09/25 02:28:38;;;;;;;3.42;3.05;;;11.90;84.00;;;;;;5114059;28;20282;-66
2021/09/25 02:31:07;;;;;;;9.38;3.38;;;11.80;83.60;;;;;;5114268;28;20239;-66
2021/09/25 02:33:36;;;;;;;3.70;3.10;;;11.80;83.60;;;;;;5114283;28;20193;-65
2021/09/25 02:36:03;;;;;;;3.85;3.35;;;11.80;83.10;;;;;;5111193;28;20184;-65
2021/09/25 02:38:32;;;;;;;5.07;4.13;;;11.80;82.30;;;;;;5113863;28;20611;-64
2021/09/25 02:40:59;;;;;;;5.00;3.58;;;11.70;80.90;;;;;;5113038;28;20212;-66
2021/09/25 02:43:31;;;;;;;3.13;2.75;;;11.70;80.60;;;;;;5113750;28;20458;-66
2021/09/25 02:45:58;;;;;;;5.82;4.15;;;11.60;79.80;;;;;;5113902;28;20623;-65
2021/09/25 02:48:26;;;;;;;5.50;3.67;;;11.60;80.30;;;;;;5113948;28;20188;-65
2021/09/25 02:50:53;;;;;;;4.68;3.42;;;11.50;80.70;;;;;;5113264;28;20667;-64
2021/09/25 02:53:20;;;;;;;4.30;2.95;;;11.50;80.60;;;;;;5113564;28;20192;-65
2021/09/25 02:55:47;;;;;;;5.35;3.10;;;11.50;81.10;;;;;;5113905;28;20188;-65
2021/09/25 02:58:14;;;;;;;5.38;3.85;;;11.40;81.10;;;;;;5113363;28;20553;-65
2021/09/25 03:00:41;;;;;;;3.65;2.80;;;11.40;80.70;;;;;;5113095;28;20212;-65
2021/09/25 03:03:08;;;;;;;3.53;2.70;;;11.40;80.70;;;;;;5113664;28;20279;-65
2021/09/25 03:05:37;;;;;;;4.60;3.42;;;11.30;80.90;;;;;;5113504;28;20275;-65
2021/09/25 03:08:04;;;;;;;5.13;3.33;;;11.30;81.00;;;;;;5113015;28;20714;-65
2021/09/25 03:10:31;;;;;;;4.30;3.60;;;11.30;81.20;;;;;;5110530;28;20215;-66
2021/09/25 03:12:58;;;;;;;5.90;3.63;;;11.30;81.10;;;;;;5113596;28;20220;-65
2021/09/25 03:15:25;;;;;;;4.75;3.78;;;11.20;81.30;;;;;;5112835;28;20267;-65
2021/09/25 03:17:54;;;;;;;7.03;4.13;;;11.20;81.40;;;;;;5113130;28;20184;-65
2021/09/25 03:20:25;;;;;;;5.93;3.72;;;11.20;82.20;;;;;;5112514;28;20263;-65
2021/09/25 03:22:54;;;;;;;4.43;3.67;;;11.20;83.10;;;;;;5113043;28;20291;-65
2021/09/25 03:25:25;;;;;;;6.03;3.53;;;11.20;83.70;;;;;;5112932;28;20267;-65
2021/09/25 03:27:54;;;;;;;6.10;4.10;;;11.20;83.60;;;;;;5113430;28;20295;-67
2021/09/25 03:30:22;;;;;;;5.10;3.70;;;11.20;83.60;;;;;;5112514;28;20195;-65
2021/09/25 03:32:49;;;;;;;5.85;3.80;;;11.30;84.30;;;;;;5113555;28;20602;-65
2021/09/25 03:35:16;;;;;;;4.35;3.80;;;11.30;84.00;;;;;;5112628;28;20184;-65
2021/09/25 03:37:54;;;;;;;5.57;4.05;;;11.20;85.30;;;;;;5112912;28;20302;-66
2021/09/25 03:40:28;;;;;;;7.97;3.75;;;11.10;85.90;;;;;;5112186;28;20275;-65
2021/09/25 03:42:56;;;;;;;3.88;3.30;;;11.00;86.50;;;;;;5113404;28;20277;-65
2021/09/25 03:45:23;;;;;;;5.38;3.60;;;11.00;87.10;;;;;;5112751;28;20292;-65
2021/09/25 03:47:58;;;;;;;11.88;4.72;;;11.00;87.30;;;;;;5112962;28;20711;-65
2021/09/25 03:50:26;;;;;;;9.90;4.50;;;11.00;87.90;;;;;;5112241;28;20192;-66
2021/09/25 03:52:54;;;;;;;5.07;3.60;;;11.00;88.10;;;;;;5112575;28;20228;-65
2021/09/25 03:55:23;;;;;;;4.72;3.22;;;11.10;88.50;;;;;;5112835;28;20190;-65
2021/09/25 03:57:57;;;;;;;5.65;4.10;;;11.10;88.70;;;;;;5113009;28;20196;-65
2021/09/25 04:00:24;;;;;;;4.95;4.03;;;11.10;89.40;;;;;;5112199;28;20181;-65
2021/09/25 04:02:52;;;;;;;7.65;4.15;;;11.00;90.00;;;;;;5113187;28;20307;-65
2021/09/25 04:05:20;;;;;;;4.28;2.90;;;11.10;90.20;;;;;;5112882;28;20703;-66
2021/09/25 04:07:48;;;;;;;4.05;3.10;;;11.10;90.30;;;;;;5112812;28;20180;-65
2021/09/25 04:10:18;;;;;;;4.28;3.15;;;11.10;90.40;;;;;;5113314;28;20277;-65
2021/09/25 04:12:45;;;;;;;5.50;3.65;;;11.20;90.50;;;;;;5092425;28;20193;-69
2021/09/25 04:15:13;;;;;;;4.50;3.60;;;11.30;90.20;;;;;;5092309;28;20594;-64
2021/09/25 04:17:40;;;;;;;3.55;2.90;;;11.30;88.60;;;;;;5111806;28;20223;-66
2021/09/25 04:20:09;;;;;;;4.78;3.22;;;11.20;87.30;;;;;;5115731;28;20194;-65
2021/09/25 04:22:41;;;;;;;7.43;3.70;;;11.20;87.70;;;;;;5116759;28;20259;-67
2021/09/25 04:25:09;;;;;;;4.90;3.35;;;11.30;88.10;;;;;;5116733;28;20177;-65
2021/09/25 04:27:36;;;;;;;4.07;3.08;;;11.30;88.20;;;;;;5116180;28;20690;-65
2021/09/25 04:30:06;;;;;;;3.88;3.45;;;11.30;87.60;;;;;;5116705;28;20698;-65
2021/09/25 04:32:34;;;;;;;5.68;3.30;;;11.30;86.80;;;;;;5114087;28;20279;-65
2021/09/25 04:35:01;;;;;;;6.05;3.03;;;11.30;84.90;;;;;;5116640;28;20301;-66
2021/09/25 04:37:29;;;;;;;6.40;4.05;;;11.20;83.70;;;;;;5115966;28;20281;-66
2021/09/25 04:39:56;;;;;;;6.15;4.50;;;11.10;83.70;;;;;;5116844;28;20188;-66
2021/09/25 04:42:25;;;;;;;6.45;3.72;;;11.10;84.10;;;;;;5114220;28;20312;-65
2021/09/25 04:44:53;;;;;;;9.90;6.97;;;11.10;83.90;;;;;;5116296;28;20279;-64
2021/09/25 04:47:20;;;;;;;5.25;4.75;;;11.10;83.90;;;;;;5115854;28;20185;-65
2021/09/25 04:49:48;;;;;;;9.63;4.25;;;11.00;84.60;;;;;;5116426;28;20232;-66
2021/09/25 04:52:16;;;;;;;5.20;4.50;;;11.00;84.90;;;;;;5113291;28;20187;-65
2021/09/25 04:54:43;;;;;;;5.25;4.13;;;11.00;85.20;;;;;;5115881;28;20188;-65
2021/09/25 04:57:14;;;;;;;6.13;4.55;;;11.00;85.70;;;;;;5116018;28;20189;-65
2021/09/25 04:59:41;;;;;;;6.43;4.68;;;11.00;85.40;;;;;;5116397;28;20639;-65
2021/09/25 05:02:09;;;;;;;5.80;4.40;;;11.00;85.70;;;;;;5115599;28;20294;-65
2021/09/25 05:04:36;;;;;;;5.10;4.30;;;11.00;86.30;;;;;;5116110;28;20184;-64
2021/09/25 05:07:05;;;;;;;7.65;4.88;;;11.00;85.40;;;;;;5115986;28;20217;-65
2021/09/25 05:09:32;;;;;;;5.75;4.65;;;11.00;85.70;;;;;;5116195;28;20275;-66
2021/09/25 05:12:00;;;;;;;5.28;4.65;;;11.00;85.50;;;;;;5115485;28;20603;-65
2021/09/25 05:14:27;;;;;;;5.18;4.10;;;11.00;84.70;;;;;;5115639;28;20284;-66
2021/09/25 05:16:57;;;;;;;5.88;4.88;;;10.90;84.60;;;;;;5114446;28;20191;-65
2021/09/25 05:19:25;;;;;;;5.20;4.35;;;10.90;84.80;;;;;;5115537;28;20638;-64
2021/09/25 05:21:54;;;;;;;8.98;5.00;;;10.90;85.10;;;;;;5115703;28;20303;-65
2021/09/25 05:24:22;;;;;;;6.13;4.00;;;10.90;85.30;;;;;;5115697;28;20311;-65
2021/09/25 05:26:55;;;;;;;5.22;4.10;;;11.00;85.60;;;;;;5115084;28;20264;-65
2021/09/25 05:29:24;;;;;;;4.50;3.90;;;11.00;85.90;;;;;;5115779;28;20192;-65
2021/09/25 05:31:52;;;;;;;8.65;3.90;;;11.00;86.20;;;;;;5115444;28;20180;-65
2021/09/25 05:34:19;;;;;;;3.70;3.17;;;11.10;86.50;;;;;;5115685;28;20295;-65
2021/09/25 05:36:46;;;;;;;4.15;3.25;;;11.10;86.60;;;;;;5114903;28;20771;-65
2021/09/25 05:39:18;;;;;;;5.57;3.58;;;11.00;85.40;;;;;;5114908;28;20714;-65
2021/09/25 05:41:52;;;;;;;4.32;3.50;;;11.00;86.00;;;;;;5113859;28;20299;-66
2021/09/25 05:44:19;;;;;;;4.68;3.45;;;11.00;86.60;;;;;;5115438;28;20281;-65
2021/09/25 05:46:48;;;;;;;5.07;4.43;;;11.10;86.40;;;;;;5114413;28;20228;-65
2021/09/25 05:49:15;;;;;;;3.30;3.00;;;11.20;85.80;;;;;;5115185;28;20271;-66
2021/09/25 05:51:47;;;;;;;4.68;3.00;;;11.20;85.80;;;;;;5114095;28;20192;-70
2021/09/25 05:54:14;;;;;;;5.93;3.58;;;11.20;85.80;;;;;;5115223;28;20287;-65
2021/09/25 05:56:41;;;;;;;7.53;3.53;;;11.30;86.00;;;;;;5115086;28;20279;-67
2021/09/25 05:59:10;;;;;;;5.13;3.25;;;11.30;86.80;;;;;;5102388;28;20194;-65
2021/09/25 06:01:43;;;;;;;4.63;3.35;;;11.40;86.30;;;;;;5112184;28;20296;-65
2021/09/25 06:04:11;;;;;;;6.63;3.60;;;11.40;86.90;;;;;;5114690;28;20241;-65
2021/09/25 06:06:39;;;;;;;6.78;4.03;;;11.50;87.40;;;;;;5114712;28;20650;-65
2021/09/25 06:09:06;;;;;;;7.65;4.93;;;11.60;87.50;;;;;;5114783;28;20271;-64
2021/09/25 06:11:33;;;;;;;8.18;5.88;;;11.70;87.70;;;;;;5115043;28;20287;-66
2021/09/25 06:14:05;;;;;;;6.13;4.60;;;11.90;87.80;;;;;;5113802;28;20211;-65
2021/09/25 06:16:38;;;;;;;5.45;4.28;;;12.00;87.90;;;;;;5114448;28;20279;-66
2021/09/25 06:19:05;;;;;;;4.35;3.67;;;12.10;87.80;;;;;;5112715;28;20531;-66
2021/09/25 06:21:34;;;;;;;4.53;3.97;;;12.20;88.20;;;;;;5114745;28;20194;-66
2021/09/25 06:24:01;;;;;;;4.65;3.80;;;12.30;88.10;;;;;;5114537;28;20283;-65
2021/09/25 06:26:33;;;;;;;5.85;3.75;;;12.40;88.10;;;;;;5113987;28;20279;-66
2021/09/25 06:29:00;;;;;;;8.57;4.05;;;12.50;88.30;;;;;;5114188;28;20613;-66
2021/09/25 06:31:27;;;;;;;4.30;3.70;;;12.60;88.10;;;;;;5114578;28;20275;-66
2021/09/25 06:33:56;;;;;;;6.85;3.60;;;12.80;88.40;;;;;;5114399;28;20279;-65
2021/09/25 06:36:23;;;;;;;5.15;3.80;;;13.00;88.40;;;;;;5114088;28;20216;-65
2021/09/25 06:38:50;;;;;;;6.25;3.97;;;13.30;88.40;;;;;;5114356;28;20228;-65
2021/09/25 06:41:18;;;;;;;6.57;4.05;;;13.50;88.20;;;;;;5113516;28;20229;-65
2021/09/25 06:43:45;;;;;;;4.38;3.33;;;13.70;87.40;;;;;;5114387;28;20223;-65
2021/09/25 06:46:14;;;;;;;5.15;3.60;;;14.00;87.00;;;;;;5114285;28;20279;-65
2021/09/25 06:48:47;;;;;;;5.05;3.25;;;14.30;86.50;;;;;;5113840;28;20188;-65
2021/09/25 06:51:17;;;;;;;4.13;3.38;;;14.60;86.00;;;;;;5114342;28;20200;-65
2021/09/25 06:53:44;;;;;;;5.25;3.72;;;15.10;85.00;;;;;;5114178;28;20279;-66
2021/09/25 06:56:11;;;;;;;4.60;3.80;;;15.60;83.70;;;;;;5113602;28;20203;-65
2021/09/25 06:58:43;;;;;;;4.00;3.20;;;16.10;82.20;;;;;;5113939;28;20445;-66
2021/09/25 07:01:10;;;;;;;4.43;3.30;;;16.70;80.70;;;;;;5111137;28;20434;-65
2021/09/25 07:03:37;;;;;;;3.50;3.00;;;17.40;78.40;;;;;;5113919;28;20576;-66
2021/09/25 07:06:05;;;;;;;4.00;2.73;;;18.00;75.40;;;;;;5113435;28;20484;-65
2021/09/25 07:08:34;;;;;;;4.50;2.73;;;18.70;73.90;;;;;;5102626;28;20518;-66
2021/09/25 07:11:03;;;;;;;4.60;2.70;;;19.50;70.20;;;;;;5093056;28;20475;-66
2021/09/25 07:13:34;;;;;;;3.73;3.23;;;20.20;65.40;;;;;;5093084;28;20820;-66
2021/09/25 07:16:01;;;;;;;4.00;3.50;;;21.10;63.40;;;;;;5092706;28;20525;-66
2021/09/25 07:18:28;;;;;;;5.63;3.60;;;22.00;59.40;;;;;;5093014;28;20479;-66
2021/09/25 07:21:00;;;;;;;4.60;3.20;;;23.10;57.60;;;;;;5100045;28;20466;-65
2021/09/25 07:23:27;;;;;;;6.17;2.80;;;25.00;54.90;;;;;;5092734;28;20491;-66
2021/09/25 07:25:56;;;;;;;3.93;3.13;;;27.20;51.60;;;;;;5092730;28;20847;-67
2021/09/25 07:28:23;;;;;;;6.20;3.40;;;29.20;43.80;;;;;;5110342;28;20509;-66
2021/09/25 07:30:50;;;;;;;4.23;2.80;;;31.00;41.80;;;;;;5108739;28;20521;-66
2021/09/25 07:33:17;;;;;;;3.27;2.90;;;32.50;36.50;;;;;;5092628;28;20861;-66
2021/09/25 07:35:45;;;;;;;3.67;3.20;;;33.70;32.20;;;;;;5096693;28;20538;-66
2021/09/25 07:38:17;;;;;;;3.90;3.00;;;34.80;29.40;;;;;;5105596;28;20880;-66
2021/09/25 07:40:52;;;;;;;3.90;2.90;;;35.90;27.70;;;;;;5094470;28;20513;-68
2021/09/25 07:43:20;;;;;;;3.07;2.67;;;36.90;26.50;;;;;;5109639;28;21010;-67
2021/09/25 07:45:50;;;;;;;4.23;3.00;;;37.90;26.00;;;;;;5110418;28;20445;-67
2021/09/25 07:48:17;;;;;;;3.60;2.80;;;38.70;23.90;;;;;;5110192;28;20843;-67
2021/09/25 07:50:44;;;;;;;2.90;2.40;;;39.40;22.40;;;;;;5093571;28;20427;-68
2021/09/25 07:53:13;;;;;;;5.77;3.20;;;40.00;21.20;;;;;;5098484;28;20514;-66
2021/09/25 07:55:40;;;;;;;3.30;3.00;;;40.70;20.80;;;;;;5112132;28;20522;-66
2021/09/25 07:58:08;;;;;;;3.70;2.70;;;41.50;21.00;;;;;;5114154;28;20438;-67
2021/09/25 08:00:38;;;;;;;2.83;2.30;;;42.30;19.40;;;;;;5096851;28;20438;-67
2021/09/25 08:03:05;;;;;;;3.70;3.07;;;42.40;19.30;;;;;;5096753;28;20513;-67
2021/09/25 08:05:32;;;;;;;6.23;2.80;;;43.20;18.60;;;;;;5096609;28;20477;-66
2021/09/25 08:07:59;;;;;;;4.20;2.93;;;43.80;18.20;;;;;;5095979;28;20524;-67
2021/09/25 08:10:25;;;;;;;3.37;2.80;;;44.30;17.10;;;;;;5095800;28;20984;-67
2021/09/25 08:12:53;;;;;;;4.07;3.13;;;44.90;17.10;;;;;;5103327;28;20473;-67
2021/09/25 08:15:20;;;;;;;4.83;2.63;;;45.50;15.80;;;;;;5114207;28;20458;-67
2021/09/25 08:17:48;;;;;;;3.60;2.73;;;45.90;16.40;;;;;;5113221;28;20441;-67
2021/09/25 08:20:17;;;;;;;3.80;2.80;;;46.30;15.40;;;;;;5096373;28;20435;-66
2021/09/25 08:22:46;;;;;;;4.23;2.80;;;46.50;15.70;;;;;;5096098;28;20533;-67
2021/09/25 08:25:14;;;;;;;4.40;2.40;;;47.20;16.00;;;;;;5096061;28;20443;-67
2021/09/25 08:27:41;;;;;;;5.50;2.50;;;47.90;15.30;;;;;;5097805;28;20525;-68
2021/09/25 08:30:10;;;;;;;4.87;2.73;;;48.70;15.30;;;;;;5096303;28;20471;-67
2021/09/25 08:32:38;;;;;;;3.33;2.20;;;49.30;14.20;;;;;;5096042;28;20492;-68
2021/09/25 08:35:07;;;;;;;3.13;2.50;;;49.90;13.50;;;;;;5096178;28;20517;-67
2021/09/25 08:37:34;;;;;;;7.07;2.50;;;50.30;13.30;;;;;;5099988;28;20490;-67
2021/09/25 08:40:02;;;;;;;3.03;2.57;;;50.80;12.70;;;;;;5095608;28;20431;-68
2021/09/25 08:42:28;;;;;;;3.13;2.50;;;51.10;12.40;;;;;;5096126;28;20526;-68
2021/09/25 08:44:57;;;;;;;4.80;2.83;;;51.20;12.50;;;;;;5095992;28;20518;-68
2021/09/25 08:47:24;;;;;;;3.77;2.93;;;51.50;11.90;;;;;;5097236;28;20438;-67
2021/09/25 08:49:51;;;;;;;3.20;2.90;;;51.70;11.90;;;;;;5095394;28;20445;-67
2021/09/25 08:52:20;;;;;;;3.23;2.93;;;51.80;12.00;;;;;;5095562;28;20537;-67
2021/09/25 08:54:53;;;;;;;2.90;2.33;;;52.10;11.80;;;;;;5087509;28;21022;-68
2021/09/25 08:57:20;;;;;;;4.87;3.20;;;52.40;11.30;;;;;;5090163;28;20513;-69
2021/09/25 08:59:57;;;;;;;2.90;2.60;;;52.70;11.40;;;;;;5091266;28;20778;-67
2021/09/25 09:02:32;;;;;;;5.00;2.70;;;52.90;10.90;;;;;;5091096;28;20520;-67
2021/09/25 09:05:06;;;;;;;4.53;2.50;;;53.20;10.50;;;;;;5093473;28;20439;-68
2021/09/25 09:07:45;;;;;;;4.23;3.57;;;53.20;11.00;;;;;;5107872;28;20523;-67
2021/09/25 09:10:14;;;;;;;4.57;2.60;;;53.70;11.10;;;;;;5111552;28;20433;-67
2021/09/25 09:12:42;;;;;;;3.43;3.13;;;54.20;10.90;;;;;;5094061;28;20462;-68
2021/09/25 09:15:10;;;;;;;2.53;2.30;;;54.70;10.70;;;;;;5098988;28;20854;-67
2021/09/25 09:17:39;;;;;;;3.10;2.60;;;55.10;10.30;;;;;;5112160;28;20487;-67
2021/09/25 09:20:12;;;;;;;4.13;2.33;;;55.40;9.60;;;;;;5111527;28;20437;-68
2021/09/25 09:22:44;;;;;;;2.60;2.40;;;55.60;9.80;;;;;;5111572;28;20466;-67
2021/09/25 09:25:11;;;;;;;3.60;2.47;;;56.10;9.80;;;;;;5111913;28;20521;-67
2021/09/25 09:27:53;;;;;;;3.93;2.63;;;56.20;9.00;;;;;;5111190;28;20434;-68
2021/09/25 09:30:22;;;;;;;3.27;2.57;;;56.10;9.30;;;;;;5111706;28;20438;-67
2021/09/25 09:32:57;;;;;;;3.10;2.73;;;56.20;9.50;;;;;;5110462;28;20437;-68
2021/09/25 09:35:28;;;;;;;4.77;2.40;;;56.60;9.70;;;;;;5093696;28;20468;-68
2021/09/25 09:37:58;;;;;;;3.43;2.30;;;57.00;9.70;;;;;;5093838;28;20896;-67
2021/09/25 09:40:26;;;;;;;2.47;2.10;;;57.40;8.50;;;;;;5093506;28;20438;-67
2021/09/25 09:42:59;;;;;;;5.03;2.27;;;57.50;8.80;;;;;;5098971;28;20481;-67
2021/09/25 09:45:28;;;;;;;3.50;2.63;;;57.80;8.60;;;;;;5111605;28;20513;-67
2021/09/25 09:47:59;;;;;;;2.50;2.20;;;58.10;8.70;;;;;;5097305;28;20438;-67
2021/09/25 09:50:29;;;;;;;3.00;2.57;;;58.50;8.70;;;;;;5092950;28;20531;-67
2021/09/25 09:53:11;;;;;;;2.97;2.30;;;58.80;8.30;;;;;;5096905;28;20981;-68
2021/09/25 09:55:38;;;;;;;2.33;2.13;;;59.20;7.80;;;;;;5093056;28;20843;-67
2021/09/25 09:58:07;;;;;;;3.13;2.50;;;59.30;8.00;;;;;;5093133;28;20492;-67
2021/09/25 10:00:46;;;;;;;3.17;2.57;;;59.60;8.10;;;;;;5097161;28;20446;-69
2021/09/25 10:03:19;;;;;;;3.60;2.60;;;59.80;8.00;;;;;;5110382;28;20477;-67
2021/09/25 10:05:49;;;;;;;3.70;2.50;;;59.80;8.10;;;;;;5096851;28;20460;-67
2021/09/25 10:08:17;;;;;;;2.50;2.30;;;59.70;8.20;;;;;;5091047;28;20466;-66
2021/09/25 10:10:45;;;;;;;4.40;2.80;;;59.70;7.90;;;;;;5093804;28;20433;-66
2021/09/25 10:13:16;;;;;;;4.03;2.47;;;60.00;7.90;;;;;;5109791;28;20437;-65
2021/09/25 10:15:44;;;;;;;2.73;2.43;;;59.90;7.70;;;;;;5104072;28;20426;-66
2021/09/25 10:18:11;;;;;;;2.47;2.27;;;60.00;7.70;;;;;;5109084;28;20866;-66
2021/09/25 10:20:38;;;;;;;7.83;2.80;;;59.70;7.20;;;;;;5111081;28;20440;-67
2021/09/25 10:23:10;;;;;;;7.13;2.70;;;59.80;7.70;;;;;;5103967;28;20473;-66
2021/09/25 10:25:39;;;;;;;4.80;2.27;;;60.10;8.20;;;;;;5111637;28;20479;-67
2021/09/25 10:28:23;;;;;;;2.83;2.30;;;60.20;8.00;;;;;;5111284;28;20434;-66
2021/09/25 10:30:51;;;;;;;4.90;4.10;;;60.30;7.90;;;;;;5094898;28;20917;-66
2021/09/25 10:33:18;;;;;;;3.90;2.70;;;60.50;7.30;;;;;;5110985;28;20426;-69
2021/09/25 10:35:48;;;;;;;2.90;2.57;;;60.70;7.20;;;;;;5093584;28;20521;-66
2021/09/25 10:38:30;;;;;;;2.60;2.40;;;60.90;7.10;;;;;;5093556;28;20477;-66
2021/09/25 10:41:14;;;;;;;2.33;2.03;;;61.00;6.90;;;;;;5093612;28;20445;-67
2021/09/25 10:43:45;;;;;;;3.73;2.30;;;60.90;7.30;;;;;;5094509;28;20474;-69
2021/09/25 10:46:13;;;;;;;4.33;3.93;;;60.80;7.00;;;;;;5103709;28;20430;-67
2021/09/25 10:48:49;;;;;;;3.60;2.23;;;60.80;7.40;;;;;;5110808;28;20788;-66
2021/09/25 10:51:18;;;;;;;4.50;2.30;;;60.90;6.80;;;;;;5100244;28;20462;-65
2021/09/25 10:53:51;;;;;;;2.60;2.30;;;60.70;6.90;;;;;;5094405;28;20525;-66
2021/09/25 10:56:21;;;;;;;4.70;2.17;;;60.90;6.70;;;;;;5111456;28;20524;-65
2021/09/25 10:58:55;;;;;;;3.63;2.20;;;61.10;7.00;;;;;;5093787;28;20541;-66
2021/09/25 11:01:33;;;;;;;2.10;1.80;;;61.40;6.80;;;;;;5101783;28;20433;-66
2021/09/25 11:04:19;;;;;;;2.27;1.90;;;61.30;6.90;;;;;;5094711;28;20517;-66
2021/09/25 11:06:56;;;;;;;3.20;2.60;;;61.30;6.90;;;;;;5094614;28;20422;-66
2021/09/25 11:09:29;;;;;;;2.70;2.50;;;61.20;6.40;;;;;;5092754;28;20545;-67
2021/09/25 11:12:01;;;;;;;2.67;2.43;;;61.20;6.90;;;;;;5092770;28;20479;-66
2021/09/25 11:14:32;;;;;;;4.47;4.07;;;61.00;6.90;;;;;;5095050;28;20451;-66
2021/09/25 11:17:04;;;;;;;3.60;2.00;;;60.90;6.90;;;;;;5105174;28;20928;-66
2021/09/25 11:19:46;;;;;;;3.37;2.13;;;60.80;6.50;;;;;;5100663;28;20497;-66
2021/09/25 11:22:27;;;;;;;2.30;2.10;;;60.50;7.00;;;;;;5107634;28;20465;-66
2021/09/25 11:24:56;;;;;;;2.30;1.90;;;60.40;6.80;;;;;;5110877;28;20555;-66
2021/09/25 11:27:28;;;;;;;2.83;2.00;;;60.20;7.10;;;;;;5110396;28;20438;-65
2021/09/25 11:30:13;;;;;;;3.00;2.03;;;60.30;6.80;;;;;;5097463;28;20438;-66
2021/09/25 11:32:45;;;;;;;2.13;1.93;;;60.40;6.40;;;;;;5109998;28;20437;-66
2021/09/25 11:35:14;;;;;;;2.50;2.10;;;60.40;6.10;;;;;;5092692;28;20444;-66
2021/09/25 11:37:56;;;;;;;4.20;2.30;;;60.50;6.30;;;;;;5091205;28;20463;-66
2021/09/25 11:40:28;;;;;;;3.87;2.27;;;60.00;6.60;;;;;;5109144;28;20433;-67
2021/09/25 11:43:04;;;;;;;2.27;1.80;;;60.10;7.20;;;;;;5110124;28;20442;-66
2021/09/25 11:45:40;;;;;;;2.40;2.20;;;60.10;6.40;;;;;;5103321;28;20417;-66
2021/09/25 11:48:09;;;;;;;2.33;1.90;;;60.00;6.10;;;;;;5110564;28;20838;-67
2021/09/25 11:50:40;;;;;;;2.60;1.97;;;59.70;6.10;;;;;;5109226;28;20522;-66
2021/09/25 11:53:08;;;;;;;3.43;1.90;;;59.50;6.20;;;;;;5110106;28;20434;-66
2021/09/25 11:55:37;;;;;;;2.50;2.03;;;59.20;6.90;;;;;;5110136;28;20484;-65
2021/09/25 11:58:08;;;;;;;2.27;1.70;;;58.80;7.20;;;;;;5110265;28;20462;-65
2021/09/25 12:00:36;;;;;;;2.40;2.20;;;58.80;6.50;;;;;;5112155;28;20517;-65
2021/09/25 12:03:05;;;;;;;2.43;2.23;;;58.50;6.70;;;;;;5113128;28;20433;-66
2021/09/25 12:05:35;;;;;;;4.37;1.97;;;58.30;7.40;;;;;;5112671;28;20475;-67
2021/09/25 12:08:09;;;;;;;2.30;2.00;;;58.20;7.60;;;;;;5113393;28;20446;-67
2021/09/25 12:10:37;;;;;;;3.57;2.30;;;58.10;7.80;;;;;;5113192;28;20437;-65
2021/09/25 12:13:08;;;;;;;4.43;2.20;;;57.90;7.10;;;;;;5113070;28;20545;-65
2021/09/25 12:15:40;;;;;;;3.53;1.87;;;57.90;7.60;;;;;;5112608;28;20481;-67
2021/09/25 12:18:18;;;;;;;3.27;2.80;;;57.80;7.00;;;;;;5112757;28;20438;-65
2021/09/25 12:20:48;;;;;;;3.07;2.33;;;57.90;7.30;;;;;;5113061;28;20434;-65
2021/09/25 12:23:22;;;;;;;3.60;2.20;;;57.80;7.60;;;;;;5112821;28;20879;-65
2021/09/25 12:25:53;;;;;;;2.80;2.30;;;57.40;6.70;;;;;;5113086;28;20437;-67
2021/09/25 12:28:48;;;;;;;2.97;2.30;;;56.80;7.20;;;;;;5112893;28;20469;-66
2021/09/25 12:31:26;;;;;;;2.53;1.80;;;56.20;8.20;;;;;;5108804;28;20472;-65
2021/09/25 12:33:56;;;;;;;3.90;2.00;;;56.10;8.10;;;;;;5112762;28;20533;-66
2021/09/25 12:36:26;;;;;;;2.60;2.13;;;55.70;8.00;;;;;;5112254;28;20594;-65
2021/09/25 12:38:54;;;;;;;5.20;2.47;;;55.30;8.40;;;;;;5112541;28;20491;-65
2021/09/25 12:41:24;;;;;;;2.80;2.43;;;54.80;8.30;;;;;;5115862;28;20434;-65
2021/09/25 12:43:56;;;;;;;4.93;2.13;;;54.50;8.30;;;;;;5115960;28;20484;-65
2021/09/25 12:46:26;;;;;;;2.60;2.37;;;53.90;9.10;;;;;;5116573;28;20450;-65
2021/09/25 12:49:05;;;;;;;2.37;2.07;;;53.30;9.30;;;;;;5116281;28;20521;-64
2021/09/25 12:51:34;;;;;;;2.80;2.00;;;52.50;9.60;;;;;;5116361;28;20516;-65
2021/09/25 12:54:10;;;;;;;3.93;2.13;;;51.90;10.00;;;;;;5115881;28;20503;-65
2021/09/25 12:56:40;;;;;;;3.93;2.37;;;51.00;10.30;;;;;;5115919;28;20979;-66
2021/09/25 12:59:12;;;;;;;2.60;2.00;;;50.10;10.20;;;;;;5115380;28;20477;-65
2021/09/25 13:01:44;;;;;;;2.70;1.83;;;48.80;10.70;;;;;;5115777;28;20523;-65